Latest Weather Observations for Wilsons Promontory

IDV60801

Issued at 2:32 pm EDT Wednesday 22 February 2017 (issued every 30 minutes, with the page automatically refreshed every 10 minutes)

About weather observations | Map of weather stations | Latest weather observations for VIC | Other Formats
Station Details ID: 085096 Name: WILSONS PROMONTORY LIGHTHOUSE Lat: -39.13 Lon: 146.42 Height: 95.0 m
Data from the previous 72 hours. | See also: Recent months at Wilsons Promontory
Date/Time
EDT
Temp
°C
App
Temp
°C
Dew
Point
°C
Rel
Hum
%
Delta-T
°C
Wind Press
QNH
hPa
Press
MSL
hPa
Rain since
9am
mm
Dir  Spd
km/h
Gust
km/h
Spd
kts
Gust
kts
22/02:30pm 20.2 16.4 14.8 71 3.2 NNE 28 32 15 17 1013.4 - 0.0
22/02:00pm 20.5 17.6 15.1 71 3.2 NE 24 30 13 16 1013.9 - 0.0
22/01:30pm 20.2 17.7 15.2 73 3.0 NE 22 28 12 15 1014.2 - 0.0
22/01:00pm 20.1 16.5 15.3 74 2.8 NNE 28 33 15 18 1014.6 - 0.0
22/12:30pm 20.1 16.8 15.1 73 3.0 NE 26 30 14 16 1014.9 - 0.0
22/12:00pm 20.0 15.8 14.6 71 3.2 NNE 30 35 16 19 1015.2 1015.0 0.0
22/11:30am 20.0 15.5 13.9 68 3.5 NNE 30 35 16 19 1015.4 - 0.0
22/11:00am 20.3 16.0 13.3 64 4.0 NNE 28 35 15 19 1015.7 - 0.0
22/10:30am 20.2 16.6 14.1 68 3.5 NNE 26 35 14 19 1015.9 - 0.0
22/10:00am 19.7 15.7 14.1 70 3.2 NNE 28 35 15 19 1016.1 - 0.0
22/09:30am 19.3 15.6 13.9 71 3.1 N 26 39 14 21 1016.4 - 0.0
22/09:00am 18.4 14.7 13.9 75 2.6 NNE 26 37 14 20 1016.5 1016.3 0.0
22/08:30am 18.2 14.4 13.7 75 2.6 NNE 26 43 14 23 1016.4 - 0.0
22/08:00am 17.4 13.1 13.3 77 2.3 NNE 28 39 15 21 1016.5 - 0.0
22/07:30am 16.8 12.8 13.1 79 2.1 NNE 26 41 14 22 1016.4 - 0.0
22/07:00am 15.9 11.4 12.5 80 1.9 NNE 28 39 15 21 1016.4 - 0.0
22/06:30am 15.8 10.5 12.4 80 1.9 NNE 32 41 17 22 1016.1 - 0.0
22/06:00am 15.7 10.9 11.7 77 2.2 NNE 28 37 15 20 1016.3 1016.1 0.0
22/05:30am 15.8 10.6 11.6 76 2.3 NNE 30 39 16 21 1016.4 - 0.0
22/05:18am 15.7 10.9 11.5 76 2.3 NNE 28 46 15 25 1016.3 - 0.0
22/05:00am 15.8 10.9 11.4 75 2.4 NNE 28 41 15 22 1016.4 - 0.0
22/04:30am 15.8 10.9 11.4 75 2.4 NNE 28 41 15 22 1016.5 - 0.0
22/04:00am 15.6 10.8 11.8 78 2.1 NNE 28 39 15 21 1016.8 - 0.0
22/03:43am 15.5 10.8 11.9 79 2.0 NNE 28 46 15 25 1017.0 - 0.0
22/03:30am 15.6 10.1 12.0 79 2.0 NNE 32 43 17 23 1017.0 - 0.0
22/03:00am 15.5 10.5 12.1 80 1.9 NNE 30 41 16 22 1017.3 1017.1 0.0
22/02:30am 15.5 10.5 12.3 81 1.8 NNE 30 41 16 22 1017.6 - 0.0
22/02:00am 15.5 10.8 12.1 80 1.9 NNE 28 37 15 20 1018.1 - 0.0
22/01:30am 15.6 11.0 12.2 80 1.9 NNE 28 35 15 19 1018.5 - 0.0
22/01:00am 15.3 11.0 11.9 80 1.9 NNE 26 37 14 20 1018.9 - 0.0
22/12:30am 15.1 10.6 11.5 79 1.9 NNE 26 35 14 19 1019.2 - 0.0
22/12:00am 14.9 11.1 11.1 78 2.0 NNE 22 28 12 15 1019.5 1019.3 0.0
 
Date/Time
EDT
Temp
°C
App
Temp
°C
Dew
Point
°C
Rel
Hum
%
Delta-T
°C
Wind Press
QNH
hPa
Press
MSL
hPa
Rain since
9am
mm
Dir  Spd
km/h
Gust
km/h
Spd
kts
Gust
kts
21/11:30pm 14.8 11.5 10.8 77 2.1 NNE 19 24 10 13 1019.8 - 0.0
21/11:00pm 14.7 11.3 10.7 77 2.1 NNE 19 24 10 13 1020.0 - 0.0
21/10:30pm 14.6 12.2 10.2 75 2.3 NNE 13 15 7 8 1020.2 - 0.0
21/09:30pm 15.1 14.9 10.3 73 2.5 WSW 2 7 1 4 1020.1 - 0.0
21/09:00pm 15.4 14.3 10.6 73 2.5 SW 7 11 4 6 1020.0 1019.8 0.0
21/08:30pm 15.7 14.6 10.7 72 2.7 SW 7 15 4 8 1019.7 - 0.0
21/08:00pm 16.0 13.0 10.5 70 2.9 WSW 17 19 9 10 1019.4 - 0.0
21/07:30pm 16.4 13.9 11.1 71 2.9 SW 15 19 8 10 1019.2 - 0.0
21/07:00pm 16.6 13.7 11.1 70 3.0 SW 17 22 9 12 1018.9 - 0.0
21/06:30pm 17.0 13.7 11.5 70 3.0 WSW 20 26 11 14 1018.9 - 0.0
21/06:00pm 16.8 12.7 11.3 70 3.0 WSW 24 28 13 15 1018.7 1018.5 0.0
21/05:30pm 16.9 11.6 11.2 69 3.1 WSW 30 35 16 19 1018.9 - 0.0
21/05:00pm 16.9 10.8 11.6 71 2.9 WSW 35 41 19 22 1018.9 - 0.0
21/04:30pm 17.0 11.7 11.3 69 3.1 WSW 30 41 16 22 1019.0 - 0.0
21/04:00pm 17.9 13.1 11.7 67 3.4 W 28 37 15 20 1019.4 - 0.0
21/03:30pm 17.5 12.9 11.1 66 3.5 W 26 33 14 18 1019.4 - 0.0
21/03:00pm 17.4 13.5 10.8 65 3.5 W 22 33 12 18 1019.6 1019.4 0.0
21/02:30pm 17.6 12.5 10.7 64 3.7 W 28 37 15 20 1019.8 - 0.0
21/02:00pm 17.8 13.2 11.1 65 3.6 W 26 33 14 18 1019.9 - 0.0
21/01:30pm 17.7 13.5 11.0 65 3.6 W 24 35 13 19 1020.0 - 0.0
21/01:00pm 18.0 14.3 11.6 66 3.5 W 22 33 12 18 1020.2 - 0.0
21/12:30pm 16.4 10.6 10.7 69 3.0 WSW 32 41 17 22 1020.0 - 0.0
21/12:00pm 17.3 12.7 10.9 66 3.4 W 26 35 14 19 1020.1 1019.9 0.0
21/11:30am 17.6 13.4 11.2 66 3.5 W 24 35 13 19 1020.2 - 0.0
21/11:00am 17.6 13.8 11.2 66 3.5 W 22 33 12 18 1020.4 - 0.0
21/10:30am 16.8 11.6 10.4 66 3.4 W 28 37 15 20 1020.1 - 0.0
21/10:00am 16.6 12.1 10.2 66 3.4 W 24 33 13 18 1019.9 - 0.0
21/09:30am 16.4 11.2 10.3 67 3.2 W 28 37 15 20 1019.6 - 0.0
21/09:00am 15.7 9.6 9.8 68 3.1 W 32 48 17 26 1019.0 1018.8 2.0
21/08:30am 15.7 10.1 10.0 69 3.0 W 30 46 16 25 1018.8 - 2.0
21/08:00am 15.4 9.4 10.2 71 2.7 W 32 43 17 23 1018.5 - 2.0
21/07:30am 15.1 9.0 9.9 71 2.7 W 32 43 17 23 1017.9 - 2.0
21/07:00am 15.2 10.0 10.4 73 2.5 W 28 41 15 22 1017.4 - 2.0
21/06:48am 15.1 9.0 9.7 70 2.8 W 32 50 17 27 1017.2 - 2.0
21/06:30am 15.0 8.7 9.6 70 2.8 W 33 46 18 25 1017.0 - 2.0
21/06:00am 15.0 8.4 10.0 72 2.6 W 35 50 19 27 1016.5 1016.3 2.0
21/05:30am 14.8 8.3 10.4 75 2.3 W 35 48 19 26 1016.5 - 2.0
21/05:10am 15.0 9.8 10.2 73 2.5 W 28 46 15 25 1016.5 - 2.0
21/05:00am 15.0 8.7 9.8 71 2.7 W 33 44 18 24 1016.1 - 2.0
21/04:30am 14.9 9.0 10.3 74 2.4 W 32 44 17 24 1016.1 - 2.0
21/04:00am 14.8 9.6 10.2 74 2.4 W 28 39 15 21 1016.0 - 2.0
21/03:30am 14.7 8.5 9.9 73 2.5 W 33 44 18 24 1015.9 - 2.0
21/03:00am 14.9 9.3 10.1 73 2.5 W 30 39 16 21 1015.7 1015.5 2.0
21/02:30am 15.0 9.5 10.6 75 2.3 W 30 46 16 25 1015.3 - 2.0
21/02:27am 14.9 9.8 10.5 75 2.3 W 28 46 15 25 1015.2 - 2.0
21/02:00am 14.9 9.4 10.5 75 2.3 W 30 44 16 24 1015.3 - 2.0
21/01:30am 14.9 8.0 10.3 74 2.4 W 37 50 20 27 1015.4 - 2.0
21/01:23am 14.9 8.4 10.5 75 2.3 W 35 54 19 29 1015.4 - 2.0
21/01:00am 15.0 8.5 10.4 74 2.4 W 35 48 19 26 1015.3 - 2.0
21/12:30am 15.0 7.3 10.2 73 2.5 W 41 54 22 29 1015.1 - 2.0
21/12:18am 15.2 7.5 10.2 72 2.6 W 41 61 22 33 1014.7 - 2.0
21/12:00am 15.3 8.0 10.1 71 2.7 W 39 56 21 30 1014.6 1014.4 2.0
 
Date/Time
EDT
Temp
°C
App
Temp
°C
Dew
Point
°C
Rel
Hum
%
Delta-T
°C
Wind Press
QNH
hPa
Press
MSL
hPa
Rain since
9am
mm
Dir  Spd
km/h
Gust
km/h
Spd
kts
Gust
kts
20/11:35pm 15.1 7.1 10.5 74 2.4 W 43 61 23 33 1014.7 - 2.0
20/11:30pm 15.1 6.2 10.5 74 2.4 W 48 61 26 33 1014.6 - 2.0
20/11:07pm 15.1 8.0 10.9 76 2.2 W 39 57 21 31 1014.5 - 2.0
20/11:00pm 14.9 6.8 10.7 76 2.2 W 44 61 24 33 1014.4 - 2.0
20/10:37pm 15.0 7.2 11.2 78 2.0 W 43 61 23 33 1014.3 - 2.0
20/10:30pm 15.0 6.6 11.0 77 2.1 W 46 59 25 32 1014.2 - 2.0
20/10:00pm 15.1 8.0 10.9 76 2.2 W 39 59 21 32 1014.1 - 2.0
20/09:39pm 15.0 7.2 11.0 77 2.1 W 43 61 23 33 1013.7 - 2.0
20/09:30pm 14.9 6.5 11.1 78 2.0 W 46 61 25 33 1013.5 - 2.0
20/09:00pm 14.9 6.0 10.7 76 2.2 W 48 67 26 36 1013.2 1013.0 2.0
20/08:54pm 15.0 6.2 11.0 77 2.1 W 48 67 26 36 1013.1 - 2.0
20/08:30pm 14.9 6.3 10.3 74 2.4 W 46 61 25 33 1012.6 - 2.0
20/08:01pm 15.2 6.6 10.4 73 2.5 W 46 65 25 35 1012.1 - 2.0
20/08:00pm 15.2 6.2 10.4 73 2.5 W 48 65 26 35 1012.2 - 2.0
20/07:48pm 15.4 6.7 10.0 70 2.8 W 46 65 25 35 1011.8 - 2.0
20/07:30pm 15.4 5.6 10.2 71 2.7 W 52 67 28 36 1011.6 - 2.0
20/07:04pm 15.3 6.3 10.1 71 2.7 W 48 67 26 36 1011.3 - 2.0
20/07:00pm 15.4 6.1 10.4 72 2.6 W 50 67 27 36 1011.3 - 2.0
20/06:30pm 15.0 6.5 10.6 75 2.3 W 46 65 25 35 1011.0 - 2.0
20/06:07pm 15.4 6.1 10.4 72 2.6 W 50 69 27 37 1010.6 - 2.0
20/06:00pm 15.5 5.4 10.3 71 2.7 W 54 69 29 37 1010.4 1010.2 2.0
20/05:30pm 15.1 6.1 10.3 73 2.5 W 48 69 26 37 1010.3 - 2.0
20/05:05pm 15.2 5.2 10.6 74 2.4 W 54 72 29 39 1009.8 - 2.0
20/05:00pm 15.1 4.6 10.9 76 2.2 WSW 57 72 31 39 1009.6 - 2.0
20/04:30pm 15.6 7.4 10.4 71 2.8 W 44 63 24 34 1009.8 - 1.8
20/04:00pm 16.0 6.9 9.7 66 3.3 W 48 69 26 37 1009.5 - 1.4
20/03:30pm 15.9 7.3 10.2 69 3.0 W 46 69 25 37 1009.5 - 1.4
20/03:00pm 15.8 5.9 9.7 67 3.2 W 52 72 28 39 1009.4 1009.2 1.4
20/02:51pm 15.6 4.8 9.9 69 3.0 WSW 57 76 31 41 1009.3 - 1.4
20/02:43pm 15.1 1.8 9.0 67 3.1 WSW 69 76 37 41 1008.9 - 1.4
20/02:31pm 15.6 7.2 9.7 68 3.1 W 44 80 24 43 1009.1 - 1.4
20/02:30pm 15.6 7.2 9.7 68 3.1 W 44 80 24 43 1009.2 - 1.4
20/02:26pm 15.3 1.5 9.4 68 3.1 WSW 72 80 39 43 1008.7 - 1.4
20/02:00pm 15.2 6.2 10.2 72 2.6 W 48 72 26 39 1008.9 - 1.2
20/01:31pm 15.1 5.2 8.3 64 3.4 W 50 69 27 37 1008.6 - 1.2
20/01:30pm 15.2 5.4 8.7 65 3.3 W 50 65 27 35 1008.6 - 1.2
20/01:00pm 15.4 6.4 10.2 71 2.7 W 48 69 26 37 1008.7 - 1.2
20/12:31pm 15.3 5.7 9.4 68 3.1 WSW 50 69 27 37 1008.5 - 1.0
20/12:30pm 15.2 5.5 9.1 67 3.1 WSW 50 65 27 35 1008.5 - 1.0
20/12:00pm 14.9 7.1 9.9 72 2.6 W 41 59 22 32 1008.7 1008.5 1.0
20/11:57am 14.9 7.5 9.9 72 2.6 W 39 59 21 32 1008.7 - 1.0
20/11:30am 14.2 5.9 9.4 73 2.5 W 43 59 23 32 1008.5 - 1.0
20/11:13am 15.0 6.9 8.7 66 3.2 W 41 63 22 34 1008.4 - 0.0
20/11:00am 14.2 2.3 8.8 70 2.7 WSW 61 70 33 38 1007.9 - 0.0
20/10:59am 14.1 2.7 8.9 71 2.6 WSW 59 70 32 38 1007.9 - 0.0
20/10:34am 15.0 7.6 8.5 65 3.3 W 37 56 20 30 1008.3 - 0.0
20/10:30am 15.5 8.2 8.7 64 3.5 W 37 54 20 29 1008.5 - 0.0
20/10:07am 14.2 6.9 8.6 69 2.8 W 37 56 20 30 1008.3 - 0.0
20/10:00am 14.4 6.0 8.8 69 2.8 W 43 57 23 31 1008.0 - 0.0
20/09:30am 14.5 5.8 7.8 64 3.3 W 43 59 23 32 1007.6 - 0.0
20/09:26am 14.5 4.9 7.8 64 3.3 WSW 48 67 26 36 1007.7 - 0.0
20/09:00am 14.3 3.5 7.8 65 3.2 WSW 54 69 29 37 1007.2 1006.9 8.0
20/08:30am 14.3 1.8 7.8 65 3.2 SW 63 76 34 41 1006.5 - 8.0
20/08:00am 13.9 1.4 7.9 67 3.0 WSW 63 76 34 41 1006.1 - 8.0
20/07:30am 13.8 1.4 8.0 68 2.9 WSW 63 72 34 39 1006.0 - 8.0
20/07:00am 13.7 1.4 7.0 64 3.3 WSW 61 69 33 37 1005.7 - 8.0
20/06:30am 13.6 1.9 7.8 68 2.9 WSW 59 69 32 37 1005.5 - 8.0
20/06:00am 13.6 3.2 7.6 67 3.0 WSW 52 69 28 37 1005.3 1005.1 8.0
20/05:30am 13.6 4.6 6.5 62 3.4 WSW 43 61 23 33 1005.1 - 8.0
20/05:27am 13.6 4.9 7.8 68 2.9 W 43 61 23 33 1005.1 - 8.0
20/05:00am 13.5 3.6 6.8 64 3.2 WSW 48 59 26 32 1005.0 - 8.0
20/04:37am 13.5 4.5 6.6 63 3.3 WSW 43 65 23 35 1004.9 - 8.0
20/04:30am 13.4 5.8 7.4 67 2.9 WSW 37 48 20 26 1005.3 - 8.0
20/04:18am 13.0 7.1 7.5 69 2.7 W 28 57 15 31 1005.7 - 8.0
20/04:00am 13.3 4.7 8.0 70 2.6 SW 43 54 23 29 1005.0 - 8.0
20/03:30am 13.1 3.0 7.3 68 2.8 SW 50 65 27 35 1004.7 - 8.0
20/03:24am 12.9 4.9 7.6 70 2.6 SW 39 54 21 29 1005.0 - 8.0
20/03:23am 13.0 7.2 8.1 72 2.4 W 28 50 15 27 1005.3 - 8.0
20/03:00am 12.4 5.7 7.3 71 2.5 W 32 46 17 25 1005.3 1005.1 8.0
20/02:30am 11.9 7.5 7.2 73 2.3 SW 20 41 11 22 1005.7 - 8.0
20/02:26am 12.3 6.4 7.6 73 2.3 SW 28 43 15 23 1005.7 - 7.8
20/02:00am 12.9 5.2 7.1 68 2.8 W 37 50 20 27 1005.6 - 7.4
20/01:30am 12.9 5.6 7.1 68 2.8 W 35 50 19 27 1005.7 - 7.4
20/01:00am 13.0 5.7 7.2 68 2.8 W 35 48 19 26 1005.8 - 7.4
20/12:30am 12.9 6.7 7.8 71 2.5 W 30 48 16 26 1006.0 - 7.4
20/12:23am 12.9 7.1 7.8 71 2.5 W 28 48 15 26 1005.8 - 7.4
20/12:00am 12.6 7.1 7.5 71 2.5 W 26 41 14 22 1006.2 1005.9 7.4
 
Date/Time
EDT
Temp
°C
App
Temp
°C
Dew
Point
°C
Rel
Hum
%
Delta-T
°C
Wind Press
QNH
hPa
Press
MSL
hPa
Rain since
9am
mm
Dir  Spd
km/h
Gust
km/h
Spd
kts
Gust
kts
19/11:30pm 12.0 6.0 6.9 71 2.5 WNW 28 41 15 22 1006.3 - 7.4
19/11:00pm 11.9 5.2 5.5 65 3.0 W 30 43 16 23 1006.7 - 7.4
19/10:30pm 12.7 7.9 7.4 70 2.6 W 22 39 12 21 1006.9 - 7.4
19/10:00pm 13.0 7.3 6.6 65 3.1 W 26 39 14 21 1006.8 - 7.4
19/09:30pm 13.2 7.5 6.5 64 3.2 W 26 43 14 23 1006.9 - 7.4
19/09:13pm 13.2 7.2 7.2 67 2.9 W 28 48 15 26 1006.7 - 7.4
19/09:00pm 13.1 7.5 7.1 67 2.9 W 26 41 14 22 1006.5 1006.2 7.4
19/08:50pm 13.0 6.5 6.6 65 3.1 W 30 48 16 26 1006.5 - 7.4
19/08:30pm 13.0 6.8 6.1 63 3.3 W 28 43 15 23 1006.2 - 7.4
19/08:00pm 12.9 6.5 6.9 67 2.9 W 30 48 16 26 1006.0 - 7.4
19/07:42pm 12.9 6.1 6.7 66 3.0 W 32 50 17 27 1005.7 - 7.4
19/07:30pm 13.1 6.8 7.3 68 2.8 W 30 46 16 25 1005.5 - 7.4
19/07:10pm 13.1 7.4 8.2 72 2.4 W 28 46 15 25 1005.2 - 7.4
19/07:00pm 13.3 8.2 7.7 69 2.8 W 24 43 13 23 1005.2 - 7.4
19/06:30pm 13.5 7.2 7.3 66 3.0 W 30 52 16 28 1005.6 - 7.4
19/06:05pm 13.8 6.1 7.1 64 3.3 W 37 56 20 30 1005.3 - 7.4
19/06:00pm 13.7 5.5 6.6 62 3.4 W 39 56 21 30 1004.9 1004.7 7.4
19/05:39pm 13.8 6.6 7.6 66 3.1 W 35 54 19 29 1004.9 - 7.4
19/05:30pm 13.7 4.8 6.8 63 3.4 W 43 56 23 30 1004.6 - 7.4
19/05:00pm 12.9 7.2 8.4 74 2.2 W 28 46 15 25 1005.1 - 7.4
19/04:31pm 14.0 7.0 6.8 62 3.5 W 33 54 18 29 1004.7 - 7.0
19/04:30pm 14.0 7.1 7.1 63 3.4 W 33 50 18 27 1004.9 - 7.0
19/04:07pm 13.7 6.4 7.2 65 3.2 W 35 56 19 30 1004.9 - 7.0
19/04:00pm 13.8 6.5 7.1 64 3.3 W 35 48 19 26 1005.2 - 7.0
19/03:37pm 14.1 6.6 8.1 67 3.0 W 37 57 20 31 1005.0 - 7.0
19/03:30pm 14.1 7.5 8.7 70 2.7 W 33 50 18 27 1005.0 - 7.0
19/03:17pm 13.8 8.2 8.8 72 2.5 W 28 50 15 27 1005.1 - 7.0
19/03:00pm 13.4 8.2 8.9 74 2.3 WNW 26 43 14 23 1005.2 1005.0 7.0
19/02:55pm 13.5 7.9 8.8 73 2.4 WNW 28 46 15 25 1005.2 - 7.0

Other Formats:

Comma delimited format used in spreadsheet applications
http://www.bom.gov.au/fwo/IDV60801/IDV60801.94893.axf

JavaScript Object Notation format (JSON) in row-major order
http://www.bom.gov.au/fwo/IDV60801/IDV60801.94893.json